sensor_id;sensor_type;location;lat;lon;timestamp;pressure;altitude;pressure_sealevel;temperature;humidity
51986;BME280;38002;53.296;6.600;2022-08-21T00:02:00;101847.44;;;15.42;72.48
51986;BME280;38002;53.296;6.600;2022-08-21T00:07:00;101847.44;;;15.34;72.68
51986;BME280;38002;53.296;6.600;2022-08-21T00:12:02;101837.47;;;15.25;72.93
51986;BME280;38002;53.296;6.600;2022-08-21T00:17:04;101836.59;;;15.17;73.14
51986;BME280;38002;53.296;6.600;2022-08-21T00:22:04;101846.53;;;15.10;72.97
51986;BME280;38002;53.296;6.600;2022-08-21T00:27:05;101835.53;;;15.02;73.55
51986;BME280;38002;53.296;6.600;2022-08-21T00:32:05;101833.63;;;14.94;73.41
51986;BME280;38002;53.296;6.600;2022-08-21T00:37:06;101834.31;;;14.88;73.62
51986;BME280;38002;53.296;6.600;2022-08-21T00:42:06;101832.22;;;14.82;73.59
51986;BME280;38002;53.296;6.600;2022-08-21T00:47:07;101827.41;;;14.76;73.98
51986;BME280;38002;53.296;6.600;2022-08-21T00:52:12;101829.81;;;14.71;74.01
51986;BME280;38002;53.296;6.600;2022-08-21T00:57:19;101819.50;;;14.65;74.14
51986;BME280;38002;53.296;6.600;2022-08-21T01:02:21;101825.31;;;14.62;74.43
51986;BME280;38002;53.296;6.600;2022-08-21T01:07:22;101820.16;;;14.59;74.63
51986;BME280;38002;53.296;6.600;2022-08-21T01:12:23;101811.75;;;14.52;75.01
51986;BME280;38002;53.296;6.600;2022-08-21T01:17:24;101815.31;;;14.44;74.82
51986;BME280;38002;53.296;6.600;2022-08-21T01:22:27;101811.03;;;14.50;74.94
51986;BME280;38002;53.296;6.600;2022-08-21T01:27:27;101829.19;;;14.51;75.38
51986;BME280;38002;53.296;6.600;2022-08-21T01:32:28;101822.84;;;14.50;75.82
51986;BME280;38002;53.296;6.600;2022-08-21T01:37:28;101816.38;;;14.51;75.44
51986;BME280;38002;53.296;6.600;2022-08-21T01:42:28;101810.88;;;14.51;75.99
51986;BME280;38002;53.296;6.600;2022-08-21T01:47:29;101818.94;;;14.53;75.63
51986;BME280;38002;53.296;6.600;2022-08-21T01:52:30;101809.88;;;14.52;76.13
51986;BME280;38002;53.296;6.600;2022-08-21T01:57:30;101803.69;;;14.50;76.14
51986;BME280;38002;53.296;6.600;2022-08-21T02:02:31;101800.44;;;14.47;75.83
51986;BME280;38002;53.296;6.600;2022-08-21T02:07:44;101789.97;;;14.42;76.52
51986;BME280;38002;53.296;6.600;2022-08-21T02:12:45;101789.59;;;14.37;76.22
51986;BME280;38002;53.296;6.600;2022-08-21T02:17:59;101783.47;;;14.35;77.40
51986;BME280;38002;53.296;6.600;2022-08-21T02:23:01;101782.91;;;14.32;76.32
51986;BME280;38002;53.296;6.600;2022-08-21T02:28:14;101781.66;;;14.26;77.20
51986;BME280;38002;53.296;6.600;2022-08-21T02:33:15;101774.28;;;14.19;76.71
51986;BME280;38002;53.296;6.600;2022-08-21T02:38:21;101779.19;;;14.15;76.43
51986;BME280;38002;53.296;6.600;2022-08-21T02:43:24;101777.81;;;14.11;76.90
51986;BME280;38002;53.296;6.600;2022-08-21T02:48:29;101774.41;;;14.09;77.22
51986;BME280;38002;53.296;6.600;2022-08-21T02:53:31;101769.09;;;14.07;76.93
51986;BME280;38002;53.296;6.600;2022-08-21T02:58:34;101756.59;;;14.05;77.38
51986;BME280;38002;53.296;6.600;2022-08-21T03:03:41;101750.28;;;14.04;77.18
51986;BME280;38002;53.296;6.600;2022-08-21T03:08:42;101744.44;;;13.99;77.66
51986;BME280;38002;53.296;6.600;2022-08-21T03:13:44;101748.34;;;13.97;77.69
51986;BME280;38002;53.296;6.600;2022-08-21T03:18:45;101750.38;;;13.95;78.00
51986;BME280;38002;53.296;6.600;2022-08-21T03:23:46;101744.25;;;13.93;77.70
51986;BME280;38002;53.296;6.600;2022-08-21T03:28:46;101740.78;;;13.91;77.73
51986;BME280;38002;53.296;6.600;2022-08-21T03:33:47;101732.75;;;13.89;77.99
51986;BME280;38002;53.296;6.600;2022-08-21T03:38:47;101724.72;;;13.88;78.14
51986;BME280;38002;53.296;6.600;2022-08-21T03:43:48;101720.97;;;13.89;78.41
51986;BME280;38002;53.296;6.600;2022-08-21T03:48:48;101721.66;;;13.91;78.67
51986;BME280;38002;53.296;6.600;2022-08-21T03:53:49;101710.72;;;13.91;78.45
51986;BME280;38002;53.296;6.600;2022-08-21T03:58:49;101716.91;;;13.93;79.19
51986;BME280;38002;53.296;6.600;2022-08-21T04:03:49;101713.13;;;13.94;79.02
51986;BME280;38002;53.296;6.600;2022-08-21T04:08:50;101717.41;;;13.96;79.12
51986;BME280;38002;53.296;6.600;2022-08-21T04:13:50;101708.00;;;13.99;79.21
51986;BME280;38002;53.296;6.600;2022-08-21T04:18:51;101707.38;;;14.05;78.75
51986;BME280;38002;53.296;6.600;2022-08-21T04:23:54;101713.38;;;14.08;78.88
51986;BME280;38002;53.296;6.600;2022-08-21T04:28:54;101713.03;;;14.12;79.61
51986;BME280;38002;53.296;6.600;2022-08-21T04:33:57;101717.34;;;14.14;79.43
51986;BME280;38002;53.296;6.600;2022-08-21T04:38:58;101713.88;;;14.12;79.49
51986;BME280;38002;53.296;6.600;2022-08-21T04:43:59;101720.59;;;14.18;79.51
51986;BME280;38002;53.296;6.600;2022-08-21T04:48:59;101709.50;;;14.19;79.41
51986;BME280;38002;53.296;6.600;2022-08-21T04:54:13;101716.66;;;14.20;80.95
51986;BME280;38002;53.296;6.600;2022-08-21T04:59:22;101713.28;;;14.26;79.72
51986;BME280;38002;53.296;6.600;2022-08-21T05:04:26;101715.66;;;14.29;79.96
51986;BME280;38002;53.296;6.600;2022-08-21T05:09:27;101724.97;;;14.36;79.91
51986;BME280;38002;53.296;6.600;2022-08-21T05:14:28;101725.16;;;14.43;79.86
51986;BME280;38002;53.296;6.600;2022-08-21T05:19:28;101719.03;;;14.49;79.94
51986;BME280;38002;53.296;6.600;2022-08-21T05:24:29;101728.28;;;14.56;79.61
51986;BME280;38002;53.296;6.600;2022-08-21T05:29:29;101727.13;;;14.67;80.28
51986;BME280;38002;53.296;6.600;2022-08-21T05:34:31;101727.13;;;14.75;79.92
51986;BME280;38002;53.296;6.600;2022-08-21T05:39:32;101722.69;;;14.82;80.43
51986;BME280;38002;53.296;6.600;2022-08-21T05:44:33;101727.00;;;14.92;80.66
51986;BME280;38002;53.296;6.600;2022-08-21T05:49:34;101728.69;;;15.02;80.13
51986;BME280;38002;53.296;6.600;2022-08-21T05:54:36;101721.53;;;15.09;80.04
51986;BME280;38002;53.296;6.600;2022-08-21T05:59:37;101724.78;;;15.20;81.01
51986;BME280;38002;53.296;6.600;2022-08-21T06:04:38;101725.97;;;15.34;80.67
51986;BME280;38002;53.296;6.600;2022-08-21T06:09:39;101728.34;;;15.45;81.11
51986;BME280;38002;53.296;6.600;2022-08-21T06:14:41;101732.31;;;15.59;81.13
51986;BME280;38002;53.296;6.600;2022-08-21T06:19:42;101718.78;;;15.73;80.61
51986;BME280;38002;53.296;6.600;2022-08-21T06:24:42;101727.63;;;15.83;80.55
51986;BME280;38002;53.296;6.600;2022-08-21T06:29:43;101725.72;;;16.00;80.65
51986;BME280;38002;53.296;6.600;2022-08-21T06:34:45;101732.88;;;16.17;83.50
51986;BME280;38002;53.296;6.600;2022-08-21T06:39:45;101731.06;;;16.32;79.83
51986;BME280;38002;53.296;6.600;2022-08-21T06:44:46;101737.53;;;16.48;79.74
51986;BME280;38002;53.296;6.600;2022-08-21T06:49:47;101728.38;;;16.63;79.53
51986;BME280;38002;53.296;6.600;2022-08-21T06:54:48;101736.72;;;16.78;79.28
51986;BME280;38002;53.296;6.600;2022-08-21T06:59:48;101734.50;;;16.96;79.23
51986;BME280;38002;53.296;6.600;2022-08-21T07:04:51;101735.94;;;17.15;78.98
51986;BME280;38002;53.296;6.600;2022-08-21T07:09:52;101728.41;;;17.32;78.62
51986;BME280;38002;53.296;6.600;2022-08-21T07:14:52;101734.25;;;17.51;77.92
51986;BME280;38002;53.296;6.600;2022-08-21T07:19:52;101729.09;;;17.71;77.67
51986;BME280;38002;53.296;6.600;2022-08-21T07:24:54;101721.13;;;17.91;77.21
51986;BME280;38002;53.296;6.600;2022-08-21T07:29:55;101721.91;;;18.14;76.37
51986;BME280;38002;53.296;6.600;2022-08-21T07:34:55;101718.38;;;18.35;75.95
51986;BME280;38002;53.296;6.600;2022-08-21T07:39:56;101719.31;;;18.56;75.34
51986;BME280;38002;53.296;6.600;2022-08-21T07:44:56;101722.97;;;18.78;74.91
51986;BME280;38002;53.296;6.600;2022-08-21T07:49:57;101717.47;;;18.99;73.59
51986;BME280;38002;53.296;6.600;2022-08-21T07:54:57;101722.13;;;19.20;73.41
51986;BME280;38002;53.296;6.600;2022-08-21T07:59:58;101714.34;;;19.45;73.16
51986;BME280;38002;53.296;6.600;2022-08-21T08:05:00;101717.94;;;19.73;72.82
51986;BME280;38002;53.296;6.600;2022-08-21T08:10:02;101713.66;;;19.99;71.98
51986;BME280;38002;53.296;6.600;2022-08-21T08:15:04;101704.63;;;20.18;71.59
51986;BME280;38002;53.296;6.600;2022-08-21T08:20:06;101706.47;;;20.38;71.07
51986;BME280;38002;53.296;6.600;2022-08-21T08:25:09;101713.38;;;20.69;70.40
51986;BME280;38002;53.296;6.600;2022-08-21T08:30:12;101713.88;;;20.99;68.37
51986;BME280;38002;53.296;6.600;2022-08-21T08:35:14;101710.13;;;21.19;69.74
51986;BME280;38002;53.296;6.600;2022-08-21T08:45:42;101704.63;;;21.65;68.90
51986;BME280;38002;53.296;6.600;2022-08-21T08:50:49;101699.00;;;21.92;68.65
51986;BME280;38002;53.296;6.600;2022-08-21T08:55:53;101696.66;;;22.22;67.98
51986;BME280;38002;53.296;6.600;2022-08-21T09:00:54;101693.38;;;22.31;68.07
51986;BME280;38002;53.296;6.600;2022-08-21T09:06:22;101701.41;;;22.52;64.66
51986;BME280;38002;53.296;6.600;2022-08-21T09:11:45;101711.44;;;22.98;65.91
51986;BME280;38002;53.296;6.600;2022-08-21T09:17:17;101702.00;;;23.05;61.84
51986;BME280;38002;53.296;6.600;2022-08-21T09:22:39;101710.56;;;22.97;62.50
51986;BME280;38002;53.296;6.600;2022-08-21T09:27:42;101703.84;;;22.80;66.60
51986;BME280;38002;53.296;6.600;2022-08-21T09:32:42;101708.03;;;22.96;66.62
51986;BME280;38002;53.296;6.600;2022-08-21T09:38:02;101709.38;;;23.18;61.70
51986;BME280;38002;53.296;6.600;2022-08-21T09:43:17;101703.81;;;23.43;61.74
51986;BME280;38002;53.296;6.600;2022-08-21T09:53:24;101714.53;;;23.71;64.72
51986;BME280;38002;53.296;6.600;2022-08-21T09:58:31;101706.09;;;24.02;63.93
51986;BME280;38002;53.296;6.600;2022-08-21T10:03:33;101702.00;;;24.05;63.80
51986;BME280;38002;53.296;6.600;2022-08-21T10:08:36;101704.25;;;24.14;63.22
51986;BME280;38002;53.296;6.600;2022-08-21T10:13:55;101692.25;;;24.20;61.01
51986;BME280;38002;53.296;6.600;2022-08-21T10:19:28;101694.41;;;24.36;59.78
51986;BME280;38002;53.296;6.600;2022-08-21T10:40:31;101686.03;;;25.79;56.57
51986;BME280;38002;53.296;6.600;2022-08-21T10:45:51;101684.44;;;25.71;56.21
51986;BME280;38002;53.296;6.600;2022-08-21T10:51:10;101695.09;;;25.63;57.07
51986;BME280;38002;53.296;6.600;2022-08-21T10:56:21;101692.06;;;25.64;56.75
51986;BME280;38002;53.296;6.600;2022-08-21T11:01:50;101690.19;;;25.35;57.27
51986;BME280;38002;53.296;6.600;2022-08-21T11:06:53;101690.41;;;25.22;57.85
51986;BME280;38002;53.296;6.600;2022-08-21T11:12:06;101695.63;;;25.30;55.37
51986;BME280;38002;53.296;6.600;2022-08-21T11:17:14;101697.06;;;25.74;58.18
51986;BME280;38002;53.296;6.600;2022-08-21T11:22:41;101707.69;;;26.24;55.22
51986;BME280;38002;53.296;6.600;2022-08-21T11:27:53;101703.81;;;26.25;54.83
51986;BME280;38002;53.296;6.600;2022-08-21T11:33:13;101692.16;;;26.79;55.50
51986;BME280;38002;53.296;6.600;2022-08-21T11:38:27;101700.22;;;27.21;53.66
51986;BME280;38002;53.296;6.600;2022-08-21T11:43:36;101695.00;;;27.58;53.62
51986;BME280;38002;53.296;6.600;2022-08-21T11:54:39;101691.31;;;27.07;48.97
51986;BME280;38002;53.296;6.600;2022-08-21T11:59:52;101709.59;;;27.15;50.62
51986;BME280;38002;53.296;6.600;2022-08-21T12:04:56;101709.88;;;26.73;52.83
51986;BME280;38002;53.296;6.600;2022-08-21T12:10:00;101712.44;;;26.23;53.35
51986;BME280;38002;53.296;6.600;2022-08-21T12:25:21;101702.69;;;25.33;54.53
51986;BME280;38002;53.296;6.600;2022-08-21T12:30:35;101706.84;;;26.00;53.19
51986;BME280;38002;53.296;6.600;2022-08-21T12:35:41;101703.09;;;26.17;52.59
51986;BME280;38002;53.296;6.600;2022-08-21T12:47:03;101712.28;;;25.60;50.72
51986;BME280;38002;53.296;6.600;2022-08-21T12:52:19;101711.03;;;25.33;52.46
51986;BME280;38002;53.296;6.600;2022-08-21T12:57:24;101719.44;;;25.14;53.62
51986;BME280;38002;53.296;6.600;2022-08-21T13:02:31;101724.91;;;24.91;53.40
51986;BME280;38002;53.296;6.600;2022-08-21T13:07:35;101731.97;;;24.75;53.89
51986;BME280;38002;53.296;6.600;2022-08-21T13:12:36;101720.28;;;24.85;54.13
51986;BME280;38002;53.296;6.600;2022-08-21T13:17:40;101728.47;;;24.80;53.51
51986;BME280;38002;53.296;6.600;2022-08-21T13:22:42;101730.66;;;24.60;53.55
51986;BME280;38002;53.296;6.600;2022-08-21T13:27:57;101725.94;;;24.60;53.47
51986;BME280;38002;53.296;6.600;2022-08-21T13:33:00;101731.75;;;24.59;53.46
51986;BME280;38002;53.296;6.600;2022-08-21T13:38:03;101725.56;;;24.57;53.47
51986;BME280;38002;53.296;6.600;2022-08-21T13:43:14;101730.66;;;24.60;52.72
51986;BME280;38002;53.296;6.600;2022-08-21T13:48:15;101732.84;;;24.58;52.73
51986;BME280;38002;53.296;6.600;2022-08-21T13:53:33;101741.88;;;24.35;51.65
51986;BME280;38002;53.296;6.600;2022-08-21T13:58:45;101745.16;;;24.07;52.24
51986;BME280;38002;53.296;6.600;2022-08-21T14:03:47;101753.69;;;23.87;53.85
51986;BME280;38002;53.296;6.600;2022-08-21T14:08:52;101749.78;;;23.70;53.95
51986;BME280;38002;53.296;6.600;2022-08-21T14:24:24;101747.66;;;23.34;55.42
51986;BME280;38002;53.296;6.600;2022-08-21T14:29:26;101751.31;;;23.35;55.83
51986;BME280;38002;53.296;6.600;2022-08-21T14:34:28;101746.88;;;23.27;55.60
51986;BME280;38002;53.296;6.600;2022-08-21T14:39:29;101764.19;;;23.23;55.86
51986;BME280;38002;53.296;6.600;2022-08-21T14:44:30;101759.78;;;23.15;56.21
51986;BME280;38002;53.296;6.600;2022-08-21T14:49:32;101761.91;;;23.13;56.59
51986;BME280;38002;53.296;6.600;2022-08-21T14:54:33;101762.16;;;23.05;56.89
51986;BME280;38002;53.296;6.600;2022-08-21T14:59:34;101765.59;;;23.07;56.72
51986;BME280;38002;53.296;6.600;2022-08-21T15:04:35;101759.59;;;23.10;56.98
51986;BME280;38002;53.296;6.600;2022-08-21T15:09:36;101764.94;;;23.12;57.38
51986;BME280;38002;53.296;6.600;2022-08-21T15:14:38;101756.44;;;23.00;57.10
51986;BME280;38002;53.296;6.600;2022-08-21T15:19:40;101764.81;;;22.93;57.60
51986;BME280;38002;53.296;6.600;2022-08-21T15:24:41;101769.47;;;22.99;57.73
51986;BME280;38002;53.296;6.600;2022-08-21T15:29:42;101766.00;;;23.04;57.85
51986;BME280;38002;53.296;6.600;2022-08-21T15:34:43;101761.75;;;23.08;57.69
51986;BME280;38002;53.296;6.600;2022-08-21T15:39:43;101762.72;;;23.20;57.38
51986;BME280;38002;53.296;6.600;2022-08-21T15:44:44;101763.75;;;23.26;57.77
51986;BME280;38002;53.296;6.600;2022-08-21T15:49:45;101766.19;;;23.16;57.77
51986;BME280;38002;53.296;6.600;2022-08-21T15:54:46;101761.75;;;23.08;57.84
51986;BME280;38002;53.296;6.600;2022-08-21T15:59:48;101772.47;;;22.91;58.97
51986;BME280;38002;53.296;6.600;2022-08-21T16:04:49;101766.78;;;22.86;57.93
51986;BME280;38002;53.296;6.600;2022-08-21T16:09:49;101761.50;;;22.72;58.07
51986;BME280;38002;53.296;6.600;2022-08-21T16:14:51;101773.66;;;22.71;58.39
51986;BME280;38002;53.296;6.600;2022-08-21T16:19:52;101775.78;;;22.75;58.70
51986;BME280;38002;53.296;6.600;2022-08-21T16:24:53;101776.81;;;22.81;59.11
51986;BME280;38002;53.296;6.600;2022-08-21T16:29:53;101770.38;;;22.87;58.58
51986;BME280;38002;53.296;6.600;2022-08-21T16:34:54;101779.34;;;22.89;58.56
51986;BME280;38002;53.296;6.600;2022-08-21T16:39:54;101782.31;;;22.87;58.38
51986;BME280;38002;53.296;6.600;2022-08-21T16:44:55;101773.84;;;22.76;59.05
51986;BME280;38002;53.296;6.600;2022-08-21T16:49:56;101790.91;;;22.66;59.07
51986;BME280;38002;53.296;6.600;2022-08-21T16:54:57;101787.53;;;22.57;59.15
51986;BME280;38002;53.296;6.600;2022-08-21T16:59:57;101790.97;;;22.53;59.07
51986;BME280;38002;53.296;6.600;2022-08-21T17:04:58;101795.47;;;22.47;59.46
51986;BME280;38002;53.296;6.600;2022-08-21T17:09:58;101801.63;;;22.49;59.43
51986;BME280;38002;53.296;6.600;2022-08-21T17:15:03;101803.56;;;22.49;59.75
51986;BME280;38002;53.296;6.600;2022-08-21T17:20:05;101810.41;;;22.46;59.47
51986;BME280;38002;53.296;6.600;2022-08-21T17:25:06;101806.78;;;22.39;59.27
51986;BME280;38002;53.296;6.600;2022-08-21T17:30:07;101812.78;;;22.30;59.25
51986;BME280;38002;53.296;6.600;2022-08-21T17:35:08;101812.78;;;22.23;59.39
51986;BME280;38002;53.296;6.600;2022-08-21T17:40:11;101812.56;;;22.18;59.35
51986;BME280;38002;53.296;6.600;2022-08-21T17:45:15;101812.78;;;22.10;59.51
51986;BME280;38002;53.296;6.600;2022-08-21T17:50:17;101804.28;;;21.98;59.63
51986;BME280;38002;53.296;6.600;2022-08-21T17:55:19;101817.91;;;21.87;59.26
51986;BME280;38002;53.296;6.600;2022-08-21T18:00:22;101813.22;;;21.74;59.61
51986;BME280;38002;53.296;6.600;2022-08-21T18:05:23;101817.88;;;21.60;59.48
51986;BME280;38002;53.296;6.600;2022-08-21T18:10:24;101812.75;;;21.44;59.63
51986;BME280;38002;53.296;6.600;2022-08-21T18:15:24;101824.63;;;21.32;60.18
51986;BME280;38002;53.296;6.600;2022-08-21T18:20:25;101822.06;;;21.17;60.27
51986;BME280;38002;53.296;6.600;2022-08-21T18:25:25;101838.16;;;21.07;60.78
51986;BME280;38002;53.296;6.600;2022-08-21T18:30:26;101839.81;;;20.95;60.98
51986;BME280;38002;53.296;6.600;2022-08-21T18:35:26;101836.34;;;20.79;61.29
51986;BME280;38002;53.296;6.600;2022-08-21T18:40:37;101848.41;;;20.65;62.23
51986;BME280;38002;53.296;6.600;2022-08-21T18:45:39;101846.59;;;20.51;62.06
51986;BME280;38002;53.296;6.600;2022-08-21T18:50:41;101835.66;;;20.36;62.34
51986;BME280;38002;53.296;6.600;2022-08-21T18:55:45;101850.00;;;20.25;62.78
51986;BME280;38002;53.296;6.600;2022-08-21T19:00:48;101850.75;;;20.13;62.92
51986;BME280;38002;53.296;6.600;2022-08-21T19:05:51;101858.75;;;20.01;63.21
51986;BME280;38002;53.296;6.600;2022-08-21T19:10:54;101864.78;;;19.90;63.67
51986;BME280;38002;53.296;6.600;2022-08-21T19:15:56;101864.47;;;19.78;64.07
51986;BME280;38002;53.296;6.600;2022-08-21T19:20:59;101867.13;;;19.65;64.35
51986;BME280;38002;53.296;6.600;2022-08-21T19:26:02;101864.63;;;19.49;64.54
51986;BME280;38002;53.296;6.600;2022-08-21T19:31:10;101858.47;;;19.32;65.16
51986;BME280;38002;53.296;6.600;2022-08-21T19:36:12;101857.81;;;19.16;65.08
51986;BME280;38002;53.296;6.600;2022-08-21T19:41:14;101867.88;;;19.02;65.84
51986;BME280;38002;53.296;6.600;2022-08-21T19:46:31;101861.31;;;18.88;66.13
51986;BME280;38002;53.296;6.600;2022-08-21T19:51:33;101858.38;;;18.75;66.12
51986;BME280;38002;53.296;6.600;2022-08-21T19:56:33;101852.06;;;18.52;69.52
51986;BME280;38002;53.296;6.600;2022-08-21T20:01:34;101862.81;;;18.47;66.56
51986;BME280;38002;53.296;6.600;2022-08-21T20:06:35;101869.84;;;18.35;66.81
51986;BME280;38002;53.296;6.600;2022-08-21T20:11:42;101865.84;;;18.23;67.22
51986;BME280;38002;53.296;6.600;2022-08-21T20:16:43;101871.81;;;18.11;67.66
51986;BME280;38002;53.296;6.600;2022-08-21T20:21:43;101873.97;;;18.01;67.62
51986;BME280;38002;53.296;6.600;2022-08-21T20:26:45;101873.34;;;17.91;67.99
51986;BME280;38002;53.296;6.600;2022-08-21T20:31:46;101881.88;;;17.82;68.56
51986;BME280;38002;53.296;6.600;2022-08-21T20:36:46;101877.16;;;17.67;68.75
51986;BME280;38002;53.296;6.600;2022-08-21T20:41:47;101884.44;;;17.60;69.07
51986;BME280;38002;53.296;6.600;2022-08-21T20:46:48;101885.53;;;17.51;68.87
51986;BME280;38002;53.296;6.600;2022-08-21T20:51:51;101890.22;;;17.43;69.47
51986;BME280;38002;53.296;6.600;2022-08-21T20:57:23;101886.16;;;17.31;71.46
51986;BME280;38002;53.296;6.600;2022-08-21T21:02:54;101880.38;;;17.17;71.50
51986;BME280;38002;53.296;6.600;2022-08-21T21:08:11;101892.47;;;17.08;71.22
51986;BME280;38002;53.296;6.600;2022-08-21T21:13:36;101895.59;;;16.97;71.78
51986;BME280;38002;53.296;6.600;2022-08-21T21:18:40;101901.50;;;16.86;70.42
51986;BME280;38002;53.296;6.600;2022-08-21T21:28:57;101900.16;;;16.74;71.14
51986;BME280;38002;53.296;6.600;2022-08-21T21:33:59;101903.63;;;16.68;71.23
51986;BME280;38002;53.296;6.600;2022-08-21T21:39:13;101893.16;;;16.63;72.14
51986;BME280;38002;53.296;6.600;2022-08-21T21:50:01;101887.84;;;16.54;72.39
51986;BME280;38002;53.296;6.600;2022-08-21T22:00:31;101899.19;;;16.51;72.55
51986;BME280;38002;53.296;6.600;2022-08-21T22:05:48;101905.19;;;16.46;73.52
51986;BME280;38002;53.296;6.600;2022-08-21T22:16:19;101904.34;;;16.38;73.01
51986;BME280;38002;53.296;6.600;2022-08-21T22:21:24;101901.97;;;16.34;73.16
51986;BME280;38002;53.296;6.600;2022-08-21T22:26:34;101898.53;;;16.32;73.62
51986;BME280;38002;53.296;6.600;2022-08-21T22:31:34;101901.97;;;16.26;73.28
51986;BME280;38002;53.296;6.600;2022-08-21T22:36:47;101900.41;;;16.24;74.68
51986;BME280;38002;53.296;6.600;2022-08-21T22:41:53;101895.09;;;16.22;73.64
51986;BME280;38002;53.296;6.600;2022-08-21T22:47:01;101893.72;;;16.18;74.39
51986;BME280;38002;53.296;6.600;2022-08-21T22:52:10;101897.53;;;16.17;74.40
51986;BME280;38002;53.296;6.600;2022-08-21T22:57:23;101893.41;;;16.13;74.91
51986;BME280;38002;53.296;6.600;2022-08-21T23:02:55;101904.72;;;16.10;75.73
51986;BME280;38002;53.296;6.600;2022-08-21T23:08:23;101901.13;;;16.10;76.10
51986;BME280;38002;53.296;6.600;2022-08-21T23:13:27;101903.34;;;16.06;74.54
51986;BME280;38002;53.296;6.600;2022-08-21T23:40:15;101905.59;;;16.03;75.51
51986;BME280;38002;53.296;6.600;2022-08-21T23:50:49;101892.56;;;16.05;76.86
